Mud Butte, SD

7:17 PM MDT on May 29, 2015 (GMT -0600)
Faith | | Change Station
CLOSE
Current Station
Airport
Location: Faith,
Elevation: 2582 ft
Nearby Weather Stations

Elev 2582 ft 45.03 °N, 102.02 °W | Updated 21 minutes ago

Partly Cloudy
Partly Cloudy
52 °F
Feels Like 52 °F
N
12
Wind Variable Wind from North
Gusts mph

Today
High -- | Low -- °F
--% Chance of Precip.
Yesterday
High -- | Low -- °F
Precip. -- in
5:09 AM 8:28 PM
Waxing Gibbous, 87% visible
Pressure 30.30 in
Visibility -9999.0 miles
Clouds
Dew Point 35 °F
Humidity 53%
Rainfall 0.12 in
Snow Depth Not available.
UV Not available.
Pollen 3.50 out of 12
Air Quality Not available.
Flu Activity Sporadic
METAR KD07 300056Z AUTO 36010KT 11/02 A3027 RMK AO1 SLP259 T01110017

More Conditions Fewer Conditions

Pressure 30.30 in
Visibility -9999.0 miles
Clouds
Dew Point 35 °F
Humidity 53%
Rainfall 0.12 in
Snow Depth Not available.
UV Not available.
Pollen 3.50 out of 12
Air Quality Not available.
Flu Activity Sporadic
METAR KD07 300056Z AUTO 36010KT 11/02 A3027 RMK AO1 SLP259 T01110017

More Conditions Fewer Conditions

10-Day Weather Forecast

Almanac

Astronomy

May. 29, 2015 Rise Set
Actual Time
Civil Twilight
Nautical Twilight
Astronomical Twilight
Moon
Length of Visible Light
Length of Day
Tomorrow will be .
, % of the Moon is Illuminated

Today's Extremes

State Highs State Lows

Community

WunderPhotos

Upload Photos

1,825,413 photos uploaded!

WunderBlogs® & News

Nearby

Air Quality

  Air Quality AQ Index Pollutant
Not available.

Snow Depth

Station Depth Elevation

Earthquake Activity

City Distance Mag. Time & Date
Minimum magnitude displayed is 2.5.

Coastal Water Temperatures

Place Temperature

Stations

Nearby Weather Stations

Station Location Temp. Windchill Dew Point Humidity Wind Precip. Elev Updated Type